createdAt,value
2022-10-21T00:00:27.484Z,13.73
2022-10-21T00:03:00.761Z,11.23
2022-10-21T00:05:34.364Z,9.43
2022-10-21T00:08:07.768Z,12.25
2022-10-21T00:10:41.145Z,9.48
2022-10-21T00:13:14.846Z,9.60
2022-10-21T00:15:59.025Z,7.15
2022-10-21T00:18:34.569Z,8.68
2022-10-21T00:21:08.850Z,12.45
2022-10-21T00:23:42.606Z,9.77
2022-10-21T00:26:16.825Z,10.50
2022-10-21T00:28:50.102Z,13.30
2022-10-21T00:31:26.137Z,9.18
2022-10-21T00:33:59.376Z,12.02
2022-10-21T00:36:33.059Z,9.48
2022-10-21T00:39:06.297Z,10.15
2022-10-21T00:41:39.722Z,11.73
2022-10-21T00:44:15.369Z,8.43
2022-10-21T00:46:53.422Z,7.57
2022-10-21T00:49:36.740Z,8.48
2022-10-21T00:52:14.652Z,13.02
2022-10-21T00:54:50.004Z,9.13
2022-10-21T00:57:25.907Z,10.77
2022-10-21T01:00:02.829Z,9.95
2022-10-21T01:02:38.580Z,12.43
2022-10-21T01:05:12.732Z,7.30
2022-10-21T01:07:48.682Z,11.07
2022-10-21T01:10:22.000Z,13.05
2022-10-21T01:13:09.370Z,6.32
2022-10-21T01:15:50.720Z,7.13
2022-10-21T01:18:31.776Z,7.10
2022-10-21T01:21:16.044Z,5.10
2022-10-21T01:24:30.833Z,4.53
2022-10-21T01:27:25.652Z,7.93
2022-10-21T01:30:36.182Z,9.98
2022-10-21T01:33:40.531Z,7.03
2022-10-21T01:36:26.449Z,5.30
2022-10-21T01:39:14.481Z,6.05
2022-10-21T01:41:54.673Z,7.32
2022-10-21T01:44:34.440Z,5.60
2022-10-21T01:47:17.558Z,5.20
2022-10-21T01:49:55.273Z,10.07
2022-10-21T01:52:28.947Z,6.55
2022-10-21T01:55:07.547Z,10.88
2022-10-21T01:57:44.858Z,6.85
2022-10-21T02:00:18.804Z,8.00
2022-10-21T02:02:53.739Z,4.35
2022-10-21T02:05:31.995Z,6.43
2022-10-21T02:08:06.194Z,7.05
2022-10-21T02:10:43.289Z,5.63
2022-10-21T02:13:21.700Z,5.57
2022-10-21T02:15:59.196Z,7.28
2022-10-21T02:18:34.159Z,9.25
2022-10-21T02:21:10.984Z,8.13
2022-10-21T02:23:52.806Z,7.95
2022-10-21T02:26:28.562Z,8.43
2022-10-21T02:29:02.007Z,8.60
2022-10-21T02:31:51.902Z,9.70
2022-10-21T02:34:34.896Z,8.32
2022-10-21T02:37:15.967Z,8.05
2022-10-21T02:39:54.249Z,8.38
2022-10-21T02:42:33.889Z,8.80
2022-10-21T02:45:08.171Z,7.28
2022-10-21T02:47:42.063Z,8.18
2022-10-21T02:50:17.275Z,6.07
2022-10-21T02:52:50.766Z,4.88
2022-10-21T02:55:23.996Z,3.38
2022-10-21T02:57:57.417Z,3.67
2022-10-21T03:00:32.896Z,4.70
2022-10-21T03:03:06.779Z,4.78
2022-10-21T03:05:41.550Z,12.20
2022-10-21T03:08:15.350Z,9.20
2022-10-21T03:10:53.041Z,7.03
2022-10-21T03:13:26.901Z,6.40
2022-10-21T03:16:00.154Z,5.10
2022-10-21T03:18:33.750Z,9.57
2022-10-21T03:21:08.623Z,13.43
2022-10-21T03:23:41.847Z,6.05
2022-10-21T03:26:15.263Z,7.38
2022-10-21T03:28:48.555Z,4.88
2022-10-21T03:31:22.046Z,8.07
2022-10-21T03:33:55.486Z,5.70
2022-10-21T03:36:30.093Z,6.38
2022-10-21T03:39:03.504Z,6.95
2022-10-21T03:41:36.725Z,6.30
2022-10-21T03:44:10.466Z,4.20
2022-10-21T03:46:43.697Z,5.13
2022-10-21T03:49:21.369Z,6.10
2022-10-21T03:51:56.319Z,6.35
2022-10-21T03:54:29.615Z,5.38
2022-10-21T03:57:03.264Z,8.63
2022-10-21T03:59:36.682Z,6.55
2022-10-21T04:02:09.956Z,5.45
2022-10-21T04:04:43.365Z,5.55
2022-10-21T04:07:17.980Z,7.32
2022-10-21T04:09:51.556Z,5.78
2022-10-21T04:12:24.966Z,11.65
2022-10-21T04:14:58.371Z,7.68
2022-10-21T04:17:31.813Z,6.60
2022-10-21T04:20:05.814Z,7.43
2022-10-21T04:22:40.766Z,7.32
2022-10-21T04:25:14.209Z,5.85
2022-10-21T04:27:47.452Z,8.13
2022-10-21T04:30:20.690Z,8.05
2022-10-21T04:32:54.372Z,7.05
2022-10-21T04:35:27.673Z,8.13
2022-10-21T04:38:02.298Z,11.40
2022-10-21T04:40:35.643Z,11.57
2022-10-21T04:43:09.369Z,6.07
2022-10-21T04:45:42.889Z,9.00
2022-10-21T04:48:16.131Z,7.55
2022-10-21T04:50:50.158Z,6.13
2022-10-21T04:53:25.178Z,5.05
2022-10-21T04:55:58.589Z,6.90
2022-10-21T04:58:32.079Z,4.97
2022-10-21T05:01:05.772Z,9.70
2022-10-21T05:03:39.228Z,7.35
2022-10-21T05:06:12.759Z,5.93
2022-10-21T05:08:47.388Z,7.45
2022-10-21T05:11:20.925Z,4.95
2022-10-21T05:13:54.208Z,4.70
2022-10-21T05:16:27.428Z,3.72
2022-10-21T05:19:00.993Z,5.05
2022-10-21T05:21:34.528Z,6.53
2022-10-21T05:24:09.336Z,8.45
2022-10-21T05:26:42.616Z,11.38
2022-10-21T05:29:16.180Z,8.95
2022-10-21T05:31:49.506Z,11.45
2022-10-21T05:34:22.774Z,6.85
2022-10-21T05:36:56.041Z,8.25
2022-10-21T05:39:30.793Z,11.65
2022-10-21T05:42:04.207Z,9.23
2022-10-21T05:44:37.433Z,10.98
2022-10-21T05:47:10.719Z,9.10
2022-10-21T05:49:43.960Z,10.65
2022-10-21T05:52:17.241Z,9.73
2022-10-21T05:54:51.890Z,8.60
2022-10-21T05:57:25.227Z,8.80
2022-10-21T05:59:58.581Z,9.40
2022-10-21T06:02:31.860Z,8.60
2022-10-21T06:05:05.537Z,9.18
2022-10-21T06:07:39.170Z,10.13
2022-10-21T06:10:13.961Z,10.25
2022-10-21T06:12:47.199Z,8.93
2022-10-21T06:15:20.471Z,8.07
2022-10-21T06:17:53.757Z,8.70
2022-10-21T06:20:27.006Z,6.80
2022-10-21T06:23:01.253Z,6.05
2022-10-21T06:25:35.911Z,6.10
2022-10-21T06:28:09.211Z,6.93
2022-10-21T06:30:42.422Z,5.90
2022-10-21T06:33:15.963Z,6.53
2022-10-21T06:35:49.252Z,5.95
2022-10-21T06:38:22.872Z,6.63
2022-10-21T06:41:09.056Z,5.75
2022-10-21T06:43:45.639Z,6.22
2022-10-21T06:46:19.188Z,5.93
2022-10-21T06:48:52.637Z,5.88
2022-10-21T06:51:25.918Z,6.28
2022-10-21T06:54:01.141Z,6.35
2022-10-21T06:56:35.762Z,6.45
2022-10-21T06:59:11.048Z,6.63
2022-10-21T07:02:00.871Z,5.38
2022-10-21T07:04:34.698Z,7.15
2022-10-21T07:07:08.260Z,6.05
2022-10-21T07:09:41.642Z,7.03
2022-10-21T07:12:16.522Z,6.45
2022-10-21T07:14:50.089Z,7.40
2022-10-21T07:17:23.858Z,6.45
2022-10-21T07:19:57.095Z,6.63
2022-10-21T07:22:31.930Z,6.13
2022-10-21T07:25:05.719Z,5.35
2022-10-21T07:27:42.261Z,5.43
2022-10-21T07:30:18.329Z,7.05
2022-10-21T07:32:52.468Z,7.07
2022-10-21T07:35:25.780Z,6.85
2022-10-21T07:37:59.060Z,6.60
2022-10-21T07:40:32.654Z,5.80
2022-10-21T07:43:10.286Z,6.85
2022-10-21T07:45:45.526Z,7.18
2022-10-21T07:48:19.215Z,6.35
2022-10-21T07:50:52.866Z,6.05
2022-10-21T07:53:26.454Z,7.05
2022-10-21T07:56:03.971Z,6.30
2022-10-21T07:58:38.909Z,7.95
2022-10-21T08:01:12.641Z,8.80
2022-10-21T08:03:46.402Z,7.85
2022-10-21T08:06:20.086Z,9.80
2022-10-21T08:08:53.682Z,17.13
2022-10-21T08:11:28.969Z,18.88
2022-10-21T08:14:06.697Z,10.65
2022-10-21T08:16:40.821Z,9.23
2022-10-21T08:19:19.895Z,9.43
2022-10-21T08:21:53.190Z,8.35
2022-10-21T08:24:28.157Z,9.60
2022-10-21T08:27:01.441Z,8.98
2022-10-21T08:29:37.732Z,11.07
2022-10-21T08:32:13.279Z,8.70
2022-10-21T08:34:46.557Z,7.88
2022-10-21T08:37:24.751Z,10.50
2022-10-21T08:39:59.035Z,9.60
2022-10-21T08:42:32.388Z,7.43
2022-10-21T08:45:10.509Z,4.97
2022-10-21T08:47:47.896Z,5.38
2022-10-21T08:50:24.408Z,4.63
2022-10-21T08:53:01.510Z,4.40
2022-10-21T08:55:36.528Z,3.97
2022-10-21T08:58:16.312Z,3.72
2022-10-21T09:00:57.172Z,4.78
2022-10-21T09:03:38.414Z,4.72
2022-10-21T09:06:20.712Z,3.00
2022-10-21T09:09:02.712Z,2.88
2022-10-21T09:11:47.757Z,2.20
2022-10-21T09:15:04.190Z,2.63
2022-10-21T09:18:02.627Z,3.17
2022-10-21T09:20:55.994Z,2.22
2022-10-21T09:23:48.652Z,2.13
2022-10-21T09:26:38.839Z,2.35
2022-10-21T09:29:25.188Z,2.00
2022-10-21T09:32:04.156Z,2.40
2022-10-21T09:34:46.880Z,2.75
2022-10-21T09:37:27.820Z,2.75
2022-10-21T09:40:14.125Z,2.78
2022-10-21T09:42:51.260Z,2.95
2022-10-21T09:45:29.508Z,2.20
2022-10-21T09:48:06.144Z,2.10
2022-10-21T09:50:41.469Z,2.13
2022-10-21T09:53:22.584Z,2.10
2022-10-21T09:56:03.822Z,2.10
2022-10-21T09:58:50.648Z,2.13
2022-10-21T10:01:24.317Z,2.15
2022-10-21T10:03:57.720Z,2.35
2022-10-21T10:06:37.643Z,2.00
2022-10-21T10:09:25.570Z,2.05
2022-10-21T10:12:02.281Z,2.03
2022-10-21T10:14:38.445Z,2.03
2022-10-21T10:17:28.973Z,2.28
2022-10-21T10:20:19.789Z,2.05
2022-10-21T10:23:10.447Z,2.05
2022-10-21T10:25:51.049Z,1.83
2022-10-21T10:28:26.702Z,2.45
2022-10-21T10:31:00.035Z,1.98
2022-10-21T10:33:36.653Z,2.47
2022-10-21T10:36:20.757Z,2.17
2022-10-21T10:38:57.287Z,3.53
2022-10-21T10:41:34.969Z,2.00
2022-10-21T10:44:17.983Z,2.25
2022-10-21T10:46:55.541Z,2.33
2022-10-21T10:49:35.002Z,2.20
2022-10-21T10:52:21.580Z,2.17
2022-10-21T10:55:19.461Z,2.60
2022-10-21T10:58:10.431Z,1.80
2022-10-21T11:00:48.291Z,2.95
2022-10-21T11:03:28.190Z,2.97
2022-10-21T11:06:13.488Z,3.50
2022-10-21T11:08:51.552Z,3.28
2022-10-21T11:11:31.099Z,2.88
2022-10-21T11:14:04.400Z,2.35
2022-10-21T11:17:02.243Z,2.65
2022-10-21T11:19:45.430Z,3.10
2022-10-21T11:22:30.356Z,2.30
2022-10-21T11:25:17.823Z,2.85
2022-10-21T11:28:07.281Z,2.45
2022-10-21T11:30:55.310Z,2.13
2022-10-21T11:33:39.246Z,2.10
2022-10-21T11:36:21.334Z,2.08
2022-10-21T11:39:36.790Z,5.05
2022-10-21T11:42:18.611Z,6.07
2022-10-21T11:45:11.562Z,3.40
2022-10-21T11:47:49.659Z,2.67
2022-10-21T11:50:41.071Z,2.22
2022-10-21T11:53:33.326Z,2.42
2022-10-21T11:56:16.062Z,1.95
2022-10-21T12:01:42.927Z,2.63
2022-10-21T12:04:37.697Z,2.00
2022-10-21T12:07:25.161Z,2.40
2022-10-21T12:10:02.698Z,2.42
2022-10-21T12:12:41.039Z,2.25
2022-10-21T12:15:19.837Z,1.88
2022-10-21T12:17:55.651Z,1.98
2022-10-21T12:20:29.144Z,1.92
2022-10-21T12:23:05.707Z,2.17
2022-10-21T12:25:45.723Z,2.08
2022-10-21T12:28:28.218Z,1.58
2022-10-21T12:31:12.357Z,1.75
2022-10-21T12:33:49.436Z,2.22
2022-10-21T12:36:39.219Z,1.77
2022-10-21T12:39:17.850Z,2.42
2022-10-21T12:42:05.908Z,2.80
2022-10-21T12:44:40.231Z,1.60
2022-10-21T12:47:26.623Z,1.75
2022-10-21T12:50:23.957Z,1.92
2022-10-21T12:53:22.053Z,1.98
2022-10-21T12:55:59.047Z,1.95
2022-10-21T12:58:37.739Z,1.38
2022-10-21T13:01:37.410Z,1.48
2022-10-21T13:04:51.428Z,2.15
2022-10-21T13:07:39.465Z,1.98
2022-10-21T13:10:30.484Z,1.63
2022-10-21T13:13:30.193Z,2.08
2022-10-21T13:16:42.162Z,2.15
2022-10-21T13:19:34.900Z,1.65
2022-10-21T13:22:13.970Z,1.70
2022-10-21T13:24:49.319Z,2.05
2022-10-21T13:27:29.508Z,1.98
2022-10-21T13:30:03.265Z,1.60
2022-10-21T13:32:37.792Z,1.83
2022-10-21T13:35:34.073Z,1.73
2022-10-21T13:38:20.614Z,1.92
2022-10-21T13:40:57.533Z,1.60
2022-10-21T13:43:38.025Z,1.17
2022-10-21T13:46:26.712Z,1.52
2022-10-21T13:49:00.792Z,1.38
2022-10-21T13:51:36.001Z,1.63
2022-10-21T13:54:13.716Z,1.60
2022-10-21T13:56:49.205Z,1.40
2022-10-21T13:59:25.169Z,1.20
2022-10-21T14:01:59.278Z,1.73
2022-10-21T14:04:34.365Z,1.25
2022-10-21T14:07:19.372Z,1.63
2022-10-21T14:09:56.072Z,1.30
2022-10-21T14:12:34.656Z,1.88
2022-10-21T14:15:14.377Z,1.13
2022-10-21T14:17:51.703Z,1.25
2022-10-21T14:20:27.626Z,1.60
2022-10-21T14:23:02.881Z,1.38
2022-10-21T14:25:36.534Z,1.23
2022-10-21T14:28:14.095Z,1.75
2022-10-21T14:30:47.733Z,1.90
2022-10-21T14:33:26.624Z,1.63
2022-10-21T14:36:09.531Z,1.85
2022-10-21T14:38:46.288Z,1.48
2022-10-21T14:41:24.173Z,2.05
2022-10-21T14:44:05.945Z,1.60
2022-10-21T14:46:44.534Z,1.00
2022-10-21T14:49:29.332Z,1.55
2022-10-21T14:52:04.937Z,1.92
2022-10-21T14:54:43.605Z,2.78
2022-10-21T14:57:29.422Z,1.73
2022-10-21T15:00:06.094Z,1.50
2022-10-21T15:02:39.920Z,1.17
2022-10-21T15:05:36.167Z,2.13
2022-10-21T15:08:24.966Z,1.55
2022-10-21T15:11:23.377Z,1.63
2022-10-21T15:13:58.574Z,1.65
2022-10-21T15:19:17.993Z,4.10
2022-10-21T15:21:54.739Z,2.78
2022-10-21T15:24:43.043Z,2.28
2022-10-21T15:27:18.918Z,1.60
2022-10-21T15:29:52.951Z,1.90
2022-10-21T15:32:30.454Z,1.65
2022-10-21T15:35:13.800Z,1.35
2022-10-21T15:37:49.550Z,1.52
2022-10-21T15:40:23.867Z,1.52
2022-10-21T15:42:57.146Z,1.15
2022-10-21T15:45:30.428Z,1.13
2022-10-21T15:48:10.538Z,1.30
2022-10-21T15:50:44.509Z,1.38
2022-10-21T15:53:17.802Z,1.75
2022-10-21T15:55:51.057Z,2.05
2022-10-21T15:58:24.335Z,1.63
2022-10-21T16:00:57.644Z,1.15
2022-10-21T16:03:32.381Z,1.58
2022-10-21T16:06:05.673Z,1.42
2022-10-21T16:08:38.949Z,1.98
2022-10-21T16:11:18.952Z,1.25
2022-10-21T16:13:59.120Z,1.60
2022-10-21T16:16:32.491Z,1.48
2022-10-21T16:19:07.688Z,1.50
2022-10-21T16:21:41.379Z,1.42
2022-10-21T16:24:14.691Z,1.77
2022-10-21T16:26:49.530Z,1.40
2022-10-21T16:29:24.422Z,1.33
2022-10-21T16:31:57.696Z,1.45
2022-10-21T16:34:32.296Z,1.35
2022-10-21T16:37:15.499Z,1.90
2022-10-21T16:39:48.738Z,1.55
2022-10-21T16:42:22.188Z,1.48
2022-10-21T16:44:55.487Z,2.25
2022-10-21T16:47:28.798Z,1.95
2022-10-21T16:50:05.195Z,2.13
2022-10-21T16:52:38.828Z,1.92
2022-10-21T16:55:12.747Z,2.35
2022-10-21T16:57:46.049Z,1.40
2022-10-21T17:00:19.350Z,1.40
2022-10-21T17:02:52.750Z,2.13
2022-10-21T17:05:27.565Z,1.90
2022-10-21T17:08:00.880Z,0.98
2022-10-21T17:10:34.161Z,1.48
2022-10-21T17:13:07.454Z,1.70
2022-10-21T17:15:40.970Z,1.30
2022-10-21T17:18:15.724Z,1.88
2022-10-21T17:20:52.077Z,1.25
2022-10-21T17:23:27.559Z,1.13
2022-10-21T17:26:00.877Z,2.28
2022-10-21T17:28:34.151Z,0.90
2022-10-21T17:31:07.397Z,1.63
2022-10-21T17:33:40.894Z,1.92
2022-10-21T17:36:16.350Z,1.70
2022-10-21T17:38:49.659Z,1.50
2022-10-21T17:41:22.952Z,1.33
2022-10-21T17:43:56.806Z,1.75
2022-10-21T17:46:30.106Z,1.50
2022-10-21T17:49:03.352Z,1.58
2022-10-21T17:51:38.048Z,1.77
2022-10-21T17:54:11.773Z,1.42
2022-10-21T17:56:45.191Z,2.10
2022-10-21T17:59:18.763Z,1.50
2022-10-21T18:01:52.065Z,1.98
2022-10-21T18:04:25.358Z,1.38
2022-10-21T18:07:00.052Z,1.60
2022-10-21T18:12:11.614Z,1.70
2022-10-21T18:14:44.904Z,1.42
2022-10-21T18:17:18.650Z,1.02
2022-10-21T18:19:53.539Z,1.92
2022-10-21T18:22:28.321Z,1.52
2022-10-21T18:25:01.651Z,1.50
2022-10-21T18:27:34.997Z,1.27
2022-10-21T18:30:09.562Z,1.38
2022-10-21T18:32:43.025Z,1.90
2022-10-21T18:35:16.587Z,1.10
2022-10-21T18:37:52.268Z,1.60
2022-10-21T18:40:25.553Z,1.52
2022-10-21T18:42:58.913Z,1.80
2022-10-21T18:45:32.209Z,1.65
2022-10-21T18:48:05.834Z,1.35
2022-10-21T18:50:39.141Z,1.88
2022-10-21T18:53:13.901Z,1.63
2022-10-21T18:55:47.233Z,1.92
2022-10-21T18:58:20.552Z,2.78
2022-10-21T19:00:53.852Z,1.85
2022-10-21T19:03:27.713Z,1.52
2022-10-21T19:06:16.703Z,1.80
2022-10-21T19:08:51.708Z,1.55
2022-10-21T19:11:25.257Z,2.03
2022-10-21T19:13:58.772Z,1.50
2022-10-21T19:16:32.217Z,1.98
2022-10-21T19:19:05.725Z,1.55
2022-10-21T19:21:39.033Z,2.03
2022-10-21T19:24:13.919Z,2.22
2022-10-21T19:26:47.786Z,1.42
2022-10-21T19:29:22.480Z,1.70
2022-10-21T19:31:56.913Z,1.85
2022-10-21T19:34:30.456Z,1.67
2022-10-21T19:37:03.697Z,1.50
2022-10-21T19:39:38.337Z,1.60
2022-10-21T19:42:11.605Z,1.63
2022-10-21T19:44:44.837Z,1.90
2022-10-21T19:47:18.095Z,2.00
2022-10-21T19:49:51.334Z,1.60
2022-10-21T19:52:24.594Z,1.90
2022-10-21T19:54:59.242Z,1.98
2022-10-21T19:57:32.631Z,2.17
2022-10-21T20:00:06.903Z,2.28
2022-10-21T20:02:44.448Z,2.03
2022-10-21T20:05:17.793Z,1.70
2022-10-21T20:07:51.115Z,1.75
2022-10-21T20:10:25.785Z,1.98
2022-10-21T20:12:59.310Z,2.08
2022-10-21T20:15:32.650Z,1.70
2022-10-21T20:18:06.311Z,2.30
2022-10-21T20:20:42.490Z,2.17
2022-10-21T20:23:15.777Z,2.40
2022-10-21T20:25:51.840Z,2.05
2022-10-21T20:28:27.308Z,2.72
2022-10-21T20:31:02.539Z,2.60
2022-10-21T20:33:42.271Z,2.40
2022-10-21T20:36:16.990Z,2.20
2022-10-21T20:38:51.416Z,1.75
2022-10-21T20:41:30.601Z,2.33
2022-10-21T20:44:05.657Z,2.70
2022-10-21T20:46:39.143Z,2.03
2022-10-21T20:49:12.875Z,3.10
2022-10-21T20:51:46.157Z,2.50
2022-10-21T20:54:22.860Z,2.80
2022-10-21T20:56:57.602Z,2.60
2022-10-21T20:59:31.343Z,2.70
2022-10-21T21:02:04.793Z,2.42
2022-10-21T21:04:38.033Z,2.75
2022-10-21T21:07:13.270Z,3.13
2022-10-21T21:10:03.142Z,2.97
2022-10-21T21:12:38.637Z,3.17
2022-10-21T21:15:12.424Z,4.22
2022-10-21T21:17:49.086Z,3.30
2022-10-21T21:20:22.367Z,2.97
2022-10-21T21:22:55.846Z,3.10
2022-10-21T21:25:29.747Z,4.40
2022-10-21T21:28:04.387Z,2.70
2022-10-21T21:30:37.677Z,3.47
2022-10-21T21:33:10.918Z,2.58
2022-10-21T21:35:44.175Z,2.80
2022-10-21T21:38:17.412Z,3.10
2022-10-21T21:40:50.666Z,3.00
2022-10-21T21:43:25.950Z,3.00
2022-10-21T21:45:59.741Z,2.70
2022-10-21T21:48:33.902Z,3.28
2022-10-21T21:51:10.199Z,5.93
2022-10-21T21:53:43.523Z,4.43
2022-10-21T21:56:16.932Z,4.88
2022-10-21T21:58:54.681Z,5.15
2022-10-21T22:01:30.325Z,4.22
2022-10-21T22:04:03.703Z,4.70
2022-10-21T22:06:38.569Z,3.55
2022-10-21T22:09:12.174Z,3.38
2022-10-21T22:11:45.522Z,2.92
2022-10-21T22:14:20.177Z,3.17
2022-10-21T22:16:53.389Z,3.15
2022-10-21T22:19:27.025Z,2.85
2022-10-21T22:22:00.421Z,3.30
2022-10-21T22:27:12.698Z,2.42
2022-10-21T22:29:47.503Z,2.55
2022-10-21T22:32:20.733Z,2.90
2022-10-21T22:34:54.329Z,2.60
2022-10-21T22:37:27.582Z,3.35
2022-10-21T22:40:00.847Z,3.45
2022-10-21T22:42:34.526Z,3.65
2022-10-21T22:45:10.089Z,3.35
2022-10-21T22:47:43.547Z,2.97
2022-10-21T22:50:16.996Z,3.58
2022-10-21T22:52:50.585Z,3.15
2022-10-21T22:55:23.839Z,4.00
2022-10-21T22:57:57.424Z,3.65
2022-10-21T23:00:32.044Z,3.17
2022-10-21T23:03:07.503Z,4.03
2022-10-21T23:05:43.469Z,3.72
2022-10-21T23:08:17.233Z,4.85
2022-10-21T23:10:50.539Z,6.22
2022-10-21T23:13:23.997Z,5.53
2022-10-21T23:15:58.594Z,5.18
2022-10-21T23:18:32.270Z,5.80
2022-10-21T23:21:05.666Z,6.03
2022-10-21T23:23:39.384Z,7.15
2022-10-21T23:26:12.615Z,5.72
2022-10-21T23:28:46.052Z,5.35
2022-10-21T23:31:20.949Z,6.22
2022-10-21T23:33:54.185Z,8.55
2022-10-21T23:36:27.791Z,6.72
2022-10-21T23:39:01.829Z,6.00
2022-10-21T23:41:35.418Z,6.68
2022-10-21T23:44:08.856Z,6.47
2022-10-21T23:46:43.709Z,5.72
2022-10-21T23:49:16.930Z,6.10
2022-10-21T23:51:50.513Z,6.50
2022-10-21T23:54:23.759Z,6.45
2022-10-21T23:56:57.172Z,5.25
2022-10-21T23:59:30.599Z,6.20
